Time;durP1;ratioP1;P1;durP2;ratioP2;P2;SDS_P1;SDS_P2;PMS_P1;PMS_P2;Temp;Humidity;BMP_temperature;BMP_pressure;BME280_temperature;BME280_humidity;BME280_pressure;Samples;Min_cycle;Max_cycle;Signal;HPM_P1;HPM_P2
2024/01/16 00:04:15;;;;;;;3.70;1.50;;;;;;;2.55;67.21;99416.88;10439574;28;20225;-63
2024/01/16 00:09:16;;;;;;;3.83;1.75;;;;;;;2.40;67.44;99417.78;10422485;28;20055;-62
2024/01/16 00:14:18;;;;;;;4.70;1.95;;;;;;;2.37;67.59;99418.84;10436369;28;20128;-62
2024/01/16 00:19:20;;;;;;;2.70;1.65;;;;;;;2.42;67.47;99429.91;10437007;28;20316;-63
2024/01/16 00:24:22;;;;;;;2.63;1.92;;;;;;;2.43;67.64;99428.09;10405007;28;20056;-63
2024/01/16 00:29:23;;;;;;;3.88;2.22;;;;;;;2.46;67.58;99436.66;10415226;28;20056;-62
2024/01/16 00:34:25;;;;;;;4.50;2.22;;;;;;;2.43;68.50;99438.63;10414767;28;20059;-64
2024/01/16 00:39:26;;;;;;;3.63;2.10;;;;;;;2.36;69.13;99448.66;10416773;28;20057;-63
2024/01/16 00:44:28;;;;;;;4.63;2.22;;;;;;;2.01;69.70;99401.69;10411279;28;20048;-63
2024/01/16 00:49:29;;;;;;;3.95;2.50;;;;;;;2.32;70.01;99456.81;10432158;28;20690;-61
2024/01/16 00:54:31;;;;;;;6.65;2.80;;;;;;;2.19;69.64;99441.78;10433931;28;20055;-62
2024/01/16 00:59:33;;;;;;;4.70;2.60;;;;;;;2.24;69.43;99452.00;10437041;28;20045;-63
2024/01/16 01:04:37;;;;;;;4.20;2.33;;;;;;;2.18;69.58;99465.47;10435229;28;20102;-61
2024/01/16 01:09:38;;;;;;;4.15;2.53;;;;;;;2.10;69.54;99461.53;10439984;28;20057;-61
2024/01/16 01:14:40;;;;;;;4.88;2.78;;;;;;;2.17;69.30;99474.31;10416481;28;20206;-62
2024/01/16 01:19:41;;;;;;;5.75;2.75;;;;;;;2.13;69.20;99473.63;10419481;28;20549;-62
2024/01/16 01:24:43;;;;;;;6.65;3.00;;;;;;;2.17;69.34;99480.38;10434990;28;20052;-63
2024/01/16 01:29:45;;;;;;;6.40;4.15;;;;;;;2.23;69.78;99487.06;10413653;28;20132;-63
2024/01/16 01:34:46;;;;;;;7.20;2.95;;;;;;;2.27;69.38;99501.72;10411830;28;20055;-62
2024/01/16 01:39:47;;;;;;;4.50;2.90;;;;;;;2.18;69.89;99499.59;10400837;28;20056;-62
2024/01/16 01:44:52;;;;;;;7.18;3.67;;;;;;;2.18;69.78;99503.09;10403005;28;20052;-62
2024/01/16 01:49:54;;;;;;;5.75;3.97;;;;;;;2.22;70.11;99506.38;10418888;28;20047;-61
2024/01/16 01:54:55;;;;;;;6.15;2.85;;;;;;;2.11;69.72;99497.34;10413087;28;20127;-61
2024/01/16 01:59:57;;;;;;;5.70;3.38;;;;;;;2.10;70.17;99524.56;10423454;28;20078;-62
2024/01/16 02:04:58;;;;;;;4.43;3.30;;;;;;;2.08;70.12;99513.28;10412825;28;20229;-62
2024/01/16 02:10:00;;;;;;;4.55;3.50;;;;;;;2.19;69.83;99525.81;10435442;28;20052;-62
2024/01/16 02:15:03;;;;;;;5.68;3.25;;;;;;;2.29;70.23;99521.69;10438898;28;20056;-62
2024/01/16 02:20:07;;;;;;;6.05;3.00;;;;;;;2.26;69.71;99518.41;10416198;28;21258;-63
2024/01/16 02:25:09;;;;;;;4.43;3.10;;;;;;;2.24;69.38;99518.50;10423874;28;21024;-61
2024/01/16 02:30:11;;;;;;;5.38;3.78;;;;;;;2.07;69.45;99527.34;10391404;28;20057;-61
2024/01/16 02:35:13;;;;;;;5.45;4.00;;;;;;;1.96;70.11;99513.97;10434876;28;20136;-61
2024/01/16 02:40:15;;;;;;;5.13;3.42;;;;;;;2.06;69.76;99532.69;10424757;28;20057;-61
2024/01/16 02:45:20;;;;;;;4.13;3.30;;;;;;;2.11;70.01;99539.34;10392131;28;20053;-63
2024/01/16 02:50:21;;;;;;;5.55;3.88;;;;;;;2.03;70.09;99540.75;10425378;28;20522;-62
2024/01/16 02:55:22;;;;;;;4.40;3.40;;;;;;;2.08;71.62;99555.28;10435301;28;20056;-63
2024/01/16 03:00:24;;;;;;;9.00;4.47;;;;;;;2.04;71.26;99543.28;10421959;28;20102;-62
2024/01/16 03:05:25;;;;;;;4.57;3.30;;;;;;;1.90;71.49;99530.06;10401829;28;20049;-64
2024/01/16 03:10:27;;;;;;;8.70;4.72;;;;;;;1.79;72.49;99532.44;10401171;28;20067;-62
2024/01/16 03:15:30;;;;;;;7.45;3.90;;;;;;;1.94;71.45;99557.84;10421695;28;20048;-62
2024/01/16 03:20:32;;;;;;;4.47;3.47;;;;;;;1.85;70.98;99553.13;10422076;28;20056;-61
2024/01/16 03:25:38;;;;;;;7.82;3.78;;;;;;;1.72;71.73;99558.19;10408189;28;20683;-62
2024/01/16 03:30:39;;;;;;;7.28;4.97;;;;;;;1.83;71.41;99568.09;10414815;28;20510;-60
2024/01/16 03:35:41;;;;;;;5.75;4.15;;;;;;;1.68;71.13;99541.78;10420320;28;20060;-60
2024/01/16 03:40:43;;;;;;;7.72;3.78;;;;;;;1.79;70.80;99556.91;10425404;28;20105;-60
2024/01/16 03:45:44;;;;;;;7.88;4.32;;;;;;;1.72;70.67;99564.28;10443365;28;20060;-62
2024/01/16 03:50:47;;;;;;;5.68;4.38;;;;;;;1.74;70.67;99565.06;10400957;28;20055;-63
2024/01/16 03:55:51;;;;;;;4.97;3.25;;;;;;;1.65;70.50;99539.31;10415623;28;20048;-62
2024/01/16 04:00:53;;;;;;;8.10;3.93;;;;;;;1.89;69.64;99557.25;10420760;28;20052;-62
2024/01/16 04:05:55;;;;;;;9.32;4.55;;;;;;;1.77;69.69;99543.88;10436020;28;20049;-61
2024/01/16 04:10:56;;;;;;;6.45;3.42;;;;;;;1.87;69.53;99546.84;10417485;28;20052;-62
2024/01/16 04:15:58;;;;;;;9.13;3.72;;;;;;;1.95;69.25;99549.03;10429914;28;20052;-63
2024/01/16 04:21:00;;;;;;;4.57;3.15;;;;;;;2.00;68.93;99539.13;10425921;28;20340;-62
2024/01/16 04:26:01;;;;;;;4.95;3.88;;;;;;;2.08;68.95;99549.19;10424003;28;20519;-62
2024/01/16 04:31:04;;;;;;;8.30;3.95;;;;;;;1.99;68.87;99537.44;10402417;28;20789;-62
2024/01/16 04:36:07;;;;;;;6.68;3.70;;;;;;;1.88;69.26;99542.44;10441890;28;20049;-62
2024/01/16 04:41:08;;;;;;;8.00;4.20;;;;;;;1.92;68.95;99559.69;10422291;28;20129;-61
2024/01/16 04:46:10;;;;;;;7.88;4.97;;;;;;;1.79;69.23;99558.69;10429865;28;20198;-61
2024/01/16 04:51:11;;;;;;;6.10;3.53;;;;;;;1.75;69.49;99565.88;10437125;28;20064;-63
2024/01/16 04:56:13;;;;;;;7.43;4.50;;;;;;;1.65;70.14;99552.44;10438213;28;20044;-63
2024/01/16 05:01:14;;;;;;;5.10;3.22;;;;;;;1.75;69.77;99558.84;10422084;28;20056;-64
2024/01/16 05:06:18;;;;;;;5.72;4.10;;;;;;;1.72;70.16;99563.44;10438934;28;20055;-62
2024/01/16 05:11:19;;;;;;;6.25;4.00;;;;;;;1.89;70.03;99559.88;10439013;28;20063;-61
2024/01/16 05:16:21;;;;;;;6.78;4.93;;;;;;;1.83;70.21;99539.22;10434842;28;20060;-65
2024/01/16 05:21:22;;;;;;;7.63;3.88;;;;;;;1.97;71.56;99546.31;10436595;28;20079;-62
2024/01/16 05:26:24;;;;;;;6.60;5.20;;;;;;;1.89;71.43;99524.00;10428798;28;20049;-62
2024/01/16 05:31:26;;;;;;;6.10;4.97;;;;;;;1.88;70.84;99537.19;10432540;28;20052;-62
2024/01/16 05:36:27;;;;;;;11.98;5.07;;;;;;;1.88;70.69;99531.94;10431042;28;20056;-62
2024/01/16 05:41:35;;;;;;;5.43;3.85;;;;;;;1.79;70.66;99511.44;10417122;28;20114;-62
2024/01/16 05:46:37;;;;;;;6.50;4.63;;;;;;;1.79;70.58;99524.56;10435366;28;20062;-61
2024/01/16 05:51:39;;;;;;;6.18;4.47;;;;;;;1.76;70.56;99542.19;10438900;28;20067;-64
2024/01/16 05:56:41;;;;;;;6.63;4.18;;;;;;;1.69;70.30;99542.63;10438570;28;20059;-63
2024/01/16 06:01:42;;;;;;;7.72;4.90;;;;;;;1.63;70.47;99527.22;10400101;28;20534;-63
2024/01/16 06:06:46;;;;;;;5.00;3.85;;;;;;;1.38;70.35;99487.44;10427443;28;20060;-62
2024/01/16 06:11:48;;;;;;;7.45;4.00;;;;;;;1.52;70.34;99504.19;10411535;28;20057;-63
2024/01/16 06:16:50;;;;;;;5.65;4.20;;;;;;;1.60;70.68;99517.72;10436679;28;20040;-62
2024/01/16 06:21:52;;;;;;;5.35;4.35;;;;;;;1.61;70.35;99514.19;10434247;28;20835;-63
2024/01/16 06:26:54;;;;;;;7.43;4.40;;;;;;;1.60;70.60;99501.97;10386901;28;20067;-62
2024/01/16 06:31:55;;;;;;;7.47;4.57;;;;;;;1.55;70.87;99493.53;10427194;28;20083;-63
2024/01/16 06:36:57;;;;;;;9.90;5.43;;;;;;;1.53;70.76;99500.63;10432556;28;20124;-62
2024/01/16 06:42:00;;;;;;;8.48;4.78;;;;;;;1.28;70.82;99483.63;10423475;28;20057;-63
2024/01/16 06:47:02;;;;;;;5.68;4.53;;;;;;;1.24;70.88;99506.53;10428980;28;20167;-62
2024/01/16 06:52:03;;;;;;;8.05;4.72;;;;;;;1.20;70.85;99504.16;10393835;28;19920;-63
2024/01/16 06:57:05;;;;;;;8.35;5.45;;;;;;;1.00;71.78;99507.84;10415969;28;20445;-62
2024/01/16 07:02:07;;;;;;;10.77;5.55;;;;;;;0.88;72.05;99514.56;10436620;28;20044;-63
2024/01/16 07:07:09;;;;;;;8.13;4.88;;;;;;;0.78;72.23;99493.25;10432307;28;20547;-63
2024/01/16 07:12:11;;;;;;;8.77;6.15;;;;;;;0.87;71.92;99520.72;10429134;28;20144;-64
2024/01/16 07:17:12;;;;;;;9.57;5.57;;;;;;;0.82;71.91;99522.75;10402675;28;20229;-62
2024/01/16 07:22:14;;;;;;;9.02;5.65;;;;;;;0.77;72.46;99530.03;10436677;28;20687;-64
2024/01/16 07:27:16;;;;;;;7.60;5.18;;;;;;;0.74;71.71;99522.31;10421361;28;20692;-64
2024/01/16 07:32:19;;;;;;;8.55;6.30;;;;;;;0.73;72.32;99536.34;10419534;28;20057;-64
2024/01/16 07:37:20;;;;;;;7.60;5.78;;;;;;;0.63;71.68;99534.19;10417039;28;20052;-63
2024/01/16 07:42:22;;;;;;;6.72;5.72;;;;;;;0.74;72.09;99546.72;10442928;28;20055;-64
2024/01/16 07:47:23;;;;;;;11.18;6.50;;;;;;;0.69;71.68;99540.88;10438860;28;20189;-63
2024/01/16 07:52:27;;;;;;;14.07;6.57;;;;;;;0.77;71.67;99559.69;10398342;28;20109;-65
2024/01/16 07:57:28;;;;;;;7.13;5.10;;;;;;;0.74;71.65;99548.53;10428224;28;20052;-62
2024/01/16 08:02:37;;;;;;;9.23;5.72;;;;;;;0.77;71.23;99564.09;10425341;28;20136;-66
2024/01/16 08:07:43;;;;;;;7.93;5.78;;;;;;;0.76;71.38;99539.63;10412710;28;20050;-62
2024/01/16 08:12:45;;;;;;;7.83;6.27;;;;;;;0.89;71.20;99550.34;10414548;28;20060;-63
2024/01/16 08:17:47;;;;;;;9.75;6.75;;;;;;;0.96;71.28;99554.34;10421991;28;20066;-64
2024/01/16 08:22:50;;;;;;;8.10;5.25;;;;;;;1.11;70.88;99557.94;10428327;28;20410;-63
2024/01/16 08:27:51;;;;;;;8.63;6.43;;;;;;;1.09;69.98;99564.19;10398327;28;20686;-64
2024/01/16 08:32:54;;;;;;;8.32;6.15;;;;;;;1.17;69.82;99554.13;10435846;28;20052;-62
2024/01/16 08:37:56;;;;;;;8.20;7.40;;;;;;;1.01;70.15;99568.03;10441203;28;20068;-63
2024/01/16 08:42:58;;;;;;;8.18;6.05;;;;;;;1.04;69.91;99565.25;10442482;28;20072;-63
2024/01/16 08:47:59;;;;;;;11.25;6.45;;;;;;;1.21;70.25;99579.25;10437761;28;20886;-62
2024/01/16 08:53:01;;;;;;;9.32;6.25;;;;;;;1.44;70.89;99579.81;10433650;28;20047;-63
2024/01/16 08:58:03;;;;;;;9.25;5.55;;;;;;;1.40;68.85;99574.75;10439270;28;20808;-63
2024/01/16 09:03:04;;;;;;;11.38;7.03;;;;;;;1.43;68.87;99576.34;10419169;28;20538;-63
2024/01/16 09:08:06;;;;;;;9.23;6.32;;;;;;;1.39;68.94;99578.28;10436354;28;20647;-64
2024/01/16 09:13:12;;;;;;;9.95;6.05;;;;;;;1.45;68.96;99576.28;10433711;28;20388;-61
2024/01/16 09:18:15;;;;;;;11.15;6.45;;;;;;;1.34;68.99;99569.81;10425204;28;20123;-63
2024/01/16 09:23:16;;;;;;;12.63;7.28;;;;;;;1.37;68.95;99577.53;10440030;28;20051;-63
2024/01/16 09:28:18;;;;;;;12.07;7.47;;;;;;;1.42;69.06;99580.75;10419779;28;20048;-63
2024/01/16 09:33:19;;;;;;;16.52;13.20;;;;;;;1.52;68.95;99594.22;10376380;28;20130;-62
2024/01/16 09:38:22;;;;;;;13.30;11.70;;;;;;;1.57;68.71;99601.84;10439363;28;20056;-62
2024/01/16 09:43:27;;;;;;;10.55;7.38;;;;;;;1.57;68.19;99607.09;10412296;28;20128;-62
2024/01/16 09:48:30;;;;;;;9.23;6.27;;;;;;;1.37;68.85;99595.06;10438634;28;20048;-64
2024/01/16 09:53:35;;;;;;;11.18;6.50;;;;;;;1.45;68.68;99613.00;10395470;28;20604;-61
2024/01/16 09:58:38;;;;;;;11.60;6.40;;;;;;;1.65;68.38;99612.78;10410463;28;20048;-63
2024/01/16 10:03:44;;;;;;;8.25;6.28;;;;;;;1.93;67.57;99625.22;10382945;28;20512;-63
2024/01/16 10:08:45;;;;;;;8.82;6.50;;;;;;;1.77;66.54;99606.88;10432064;28;20467;-63
2024/01/16 10:13:47;;;;;;;7.65;6.00;;;;;;;1.76;67.94;99620.91;10435109;28;20059;-63
2024/01/16 10:19:03;;;;;;;9.52;6.68;;;;;;;1.70;67.71;99618.63;10433724;28;20064;-62
2024/01/16 10:24:15;;;;;;;11.80;6.97;;;;;;;1.73;68.01;99615.84;10436941;28;20045;-62
2024/01/16 10:29:16;;;;;;;8.23;6.10;;;;;;;1.67;67.18;99596.97;10429606;28;20714;-63
2024/01/16 10:34:22;;;;;;;7.93;6.30;;;;;;;1.76;67.69;99602.53;10419185;28;21469;-63
2024/01/16 10:39:25;;;;;;;8.55;6.97;;;;;;;1.58;67.58;99582.56;10427650;28;20078;-63
2024/01/16 10:44:53;;;;;;;8.80;5.78;;;;;;;1.63;68.42;99585.78;10409222;28;20525;-64
2024/01/16 10:49:55;;;;;;;8.50;6.28;;;;;;;1.61;67.95;99592.88;10421017;28;20781;-62
2024/01/16 10:54:59;;;;;;;12.70;10.38;;;;;;;1.61;67.80;99577.16;10406573;28;20133;-63
2024/01/16 11:00:07;;;;;;;34.50;24.25;;;;;;;1.65;67.58;99583.94;10422537;28;20056;-64
2024/01/16 11:05:12;;;;;;;11.75;8.93;;;;;;;1.70;67.67;99571.38;10442049;28;20060;-65
2024/01/16 11:10:13;;;;;;;17.58;14.23;;;;;;;1.99;67.49;99571.56;10442308;28;20072;-62
2024/01/16 11:15:15;;;;;;;12.35;7.03;;;;;;;2.55;65.77;99555.28;10432083;28;20053;-63
2024/01/16 11:20:18;;;;;;;9.93;6.57;;;;;;;2.99;63.74;99551.81;10437297;28;20075;-62
2024/01/16 11:25:40;;;;;;;13.18;7.50;;;;;;;3.32;62.73;99550.69;10444114;28;20056;-62
2024/01/16 11:30:45;;;;;;;9.27;6.00;;;;;;;3.35;61.89;99548.69;10435791;28;20140;-63
2024/01/16 11:35:46;;;;;;;9.77;6.28;;;;;;;3.52;61.22;99536.28;10426074;28;20136;-64
2024/01/16 11:40:50;;;;;;;12.07;6.78;;;;;;;3.51;59.96;99522.28;10425204;28;20633;-64
2024/01/16 11:45:51;;;;;;;14.98;10.73;;;;;;;4.64;57.24;99503.56;10426719;28;20053;-62
2024/01/16 11:50:53;;;;;;;8.15;6.85;;;;;;;5.32;55.62;99507.69;10419615;28;20063;-61
2024/01/16 11:56:12;;;;;;;10.88;8.20;;;;;;;4.73;56.03;99479.25;10410199;28;20139;-64
2024/01/16 12:01:20;;;;;;;9.07;6.03;;;;;;;4.40;57.33;99491.13;10430680;28;20056;-64
2024/01/16 12:06:23;;;;;;;9.02;6.18;;;;;;;4.29;57.33;99490.97;10415134;28;20056;-64
2024/01/16 12:11:27;;;;;;;9.43;5.65;;;;;;;4.28;58.60;99486.66;10423268;28;20116;-65
2024/01/16 12:16:41;;;;;;;13.55;8.48;;;;;;;4.56;57.07;99483.88;10415831;28;20040;-65
2024/01/16 12:21:44;;;;;;;8.40;6.32;;;;;;;5.24;55.11;99467.78;10378072;28;20195;-66
2024/01/16 12:26:46;;;;;;;9.60;6.35;;;;;;;5.82;53.44;99468.03;10432242;28;20490;-65
2024/01/16 12:31:47;;;;;;;8.88;6.57;;;;;;;6.65;51.18;99467.16;10432598;28;20099;-62
2024/01/16 12:37:04;;;;;;;10.73;6.65;;;;;;;7.55;49.04;99463.66;10431420;28;20155;-64
2024/01/16 12:42:12;;;;;;;11.02;7.55;;;;;;;8.62;46.12;99446.97;10420397;28;20831;-63
2024/01/16 12:47:19;;;;;;;8.57;5.93;;;;;;;9.63;43.79;99439.91;10410786;28;20526;-65
2024/01/16 12:52:26;;;;;;;7.57;5.07;;;;;;;10.15;41.82;99426.38;10406220;28;20052;-65
2024/01/16 12:57:27;;;;;;;8.00;5.10;;;;;;;9.57;42.64;99427.19;10400488;28;20459;-65
2024/01/16 13:02:30;;;;;;;7.60;4.78;;;;;;;8.26;44.97;99427.84;10406609;28;20064;-64
2024/01/16 13:07:32;;;;;;;9.00;6.00;;;;;;;7.12;46.99;99418.59;10416869;28;20728;-62
2024/01/16 13:12:35;;;;;;;7.45;4.43;;;;;;;6.45;48.63;99428.16;10412346;28;20055;-65
2024/01/16 13:17:37;;;;;;;6.10;4.97;;;;;;;6.15;48.99;99411.84;10438627;28;20538;-67
2024/01/16 13:22:41;;;;;;;10.97;6.00;;;;;;;6.04;50.45;99411.00;10436151;28;20786;-65
2024/01/16 13:27:48;;;;;;;13.25;11.23;;;;;;;5.80;49.43;99412.66;10426708;28;20303;-64
2024/01/16 13:32:49;;;;;;;10.30;5.55;;;;;;;5.59;50.54;99404.53;10437763;28;20772;-66
2024/01/16 13:37:51;;;;;;;25.27;22.92;;;;;;;5.19;52.05;99406.59;10417561;28;20510;-62
2024/01/16 13:42:53;;;;;;;7.95;5.35;;;;;;;5.24;52.58;99404.44;10432560;28;20139;-64
2024/01/16 13:47:57;;;;;;;6.53;5.05;;;;;;;5.07;53.03;99397.75;10432031;28;20183;-63
2024/01/16 13:53:02;;;;;;;8.18;6.25;;;;;;;5.98;49.73;99370.88;10434024;28;20049;-67
2024/01/16 13:58:04;;;;;;;8.27;5.63;;;;;;;6.70;47.85;99396.22;10436178;28;20671;-63
2024/01/16 14:03:06;;;;;;;8.02;5.43;;;;;;;5.81;50.13;99387.09;10407477;28;20052;-62
2024/01/16 14:08:11;;;;;;;9.60;5.93;;;;;;;5.35;51.30;99387.88;10432780;28;20127;-63
2024/01/16 14:13:13;;;;;;;8.23;5.95;;;;;;;5.14;51.90;99385.81;10431411;28;20052;-64
2024/01/16 14:18:14;;;;;;;6.13;4.68;;;;;;;4.96;52.38;99380.88;10437354;28;20087;-63
2024/01/16 14:23:16;;;;;;;11.15;5.22;;;;;;;4.76;52.60;99394.66;10412554;28;20560;-63
2024/01/16 14:28:20;;;;;;;7.47;5.78;;;;;;;4.42;52.57;99355.66;10435813;28;20063;-63
2024/01/16 14:33:30;;;;;;;7.97;4.40;;;;;;;4.36;53.71;99394.78;10408662;28;20052;-64
2024/01/16 14:38:31;;;;;;;4.30;3.70;;;;;;;4.13;53.52;99405.09;10406762;28;20054;-64
2024/01/16 14:43:33;;;;;;;8.25;5.13;;;;;;;4.34;53.90;99405.41;10420384;28;20052;-62
2024/01/16 14:48:37;;;;;;;8.90;4.75;;;;;;;4.51;53.47;99404.25;10415124;28;20446;-64
2024/01/16 14:53:39;;;;;;;6.68;3.70;;;;;;;4.64;53.33;99396.34;10397431;28;20065;-63
2024/01/16 14:58:41;;;;;;;9.35;5.28;;;;;;;4.72;52.76;99395.81;10418515;28;20060;-64
2024/01/16 15:03:42;;;;;;;10.52;5.03;;;;;;;4.42;52.97;99386.44;10408355;28;20153;-65
2024/01/16 15:08:44;;;;;;;8.15;4.93;;;;;;;4.22;53.65;99374.66;10422310;28;20056;-65
2024/01/16 15:13:45;;;;;;;10.77;5.10;;;;;;;4.04;54.05;99376.75;10429112;28;20051;-63
2024/01/16 15:18:47;;;;;;;7.50;5.00;;;;;;;3.91;54.32;99391.66;10367642;28;20216;-63
2024/01/16 15:23:49;;;;;;;6.70;5.20;;;;;;;3.56;54.89;99352.72;10394213;28;20175;-65
2024/01/16 15:28:53;;;;;;;10.43;5.85;;;;;;;3.53;55.27;99375.66;10420221;28;20130;-64
2024/01/16 15:33:55;;;;;;;7.90;5.07;;;;;;;3.25;56.11;99395.00;10421878;28;20125;-63
2024/01/16 15:38:56;;;;;;;8.32;5.88;;;;;;;3.08;56.51;99388.19;10429534;28;20048;-62
2024/01/16 15:43:58;;;;;;;6.28;5.18;;;;;;;2.93;56.96;99374.25;10440878;28;20083;-63
2024/01/16 15:49:11;;;;;;;8.82;7.35;;;;;;;3.03;57.35;99384.16;10419864;28;20146;-63
2024/01/16 15:54:12;;;;;;;7.07;4.72;;;;;;;2.94;57.97;99375.06;10425794;28;20118;-62
2024/01/16 15:59:14;;;;;;;7.88;5.15;;;;;;;2.84;58.02;99374.81;10421908;28;20522;-62
2024/01/16 16:04:17;;;;;;;10.57;6.78;;;;;;;2.72;58.00;99381.69;10433494;28;20594;-62
2024/01/16 16:09:18;;;;;;;8.68;5.07;;;;;;;2.71;57.82;99390.50;10436469;28;20591;-62
2024/01/16 16:14:20;;;;;;;9.10;7.85;;;;;;;2.65;58.26;99385.63;10429441;28;20071;-62
2024/01/16 16:19:22;;;;;;;8.48;5.85;;;;;;;2.75;58.59;99381.47;10408645;28;20478;-62
2024/01/16 16:24:24;;;;;;;9.82;6.57;;;;;;;2.82;58.16;99366.16;10416949;28;20062;-62
2024/01/16 16:29:27;;;;;;;9.00;5.47;;;;;;;2.82;58.41;99364.41;10400578;28;20094;-63
2024/01/16 16:34:28;;;;;;;9.75;6.28;;;;;;;2.86;57.63;99372.94;10435325;28;20079;-63
2024/01/16 16:39:31;;;;;;;12.48;7.78;;;;;;;2.84;57.61;99366.94;10445027;28;20050;-63
2024/01/16 16:44:32;;;;;;;8.30;5.57;;;;;;;2.69;57.92;99388.88;10443738;28;20095;-63
2024/01/16 16:49:35;;;;;;;7.28;5.15;;;;;;;2.62;57.91;99394.53;10429507;28;20055;-62
2024/01/16 16:54:36;;;;;;;11.82;5.82;;;;;;;2.67;58.17;99398.66;10403487;28;21521;-62
2024/01/16 16:59:40;;;;;;;8.82;5.90;;;;;;;2.57;58.01;99391.34;10411030;28;20053;-63
2024/01/16 17:04:42;;;;;;;11.35;5.80;;;;;;;2.48;58.42;99400.63;10412270;28;20057;-61
2024/01/16 17:09:44;;;;;;;8.13;5.75;;;;;;;2.45;58.40;99387.69;10434992;28;20154;-62
2024/01/16 17:14:46;;;;;;;8.40;5.32;;;;;;;2.40;58.14;99387.13;10424199;28;20044;-62
2024/01/16 17:19:47;;;;;;;10.52;5.75;;;;;;;2.29;58.89;99402.66;10424477;28;20060;-61
2024/01/16 17:24:50;;;;;;;12.48;6.88;;;;;;;2.37;58.78;99392.56;10437165;28;20507;-61
2024/01/16 17:29:52;;;;;;;12.75;6.53;;;;;;;2.25;58.44;99382.78;10438393;28;20111;-62
2024/01/16 17:34:53;;;;;;;10.70;7.15;;;;;;;2.26;58.33;99387.09;10436374;28;20051;-62
2024/01/16 17:39:55;;;;;;;7.68;6.22;;;;;;;2.19;58.65;99367.38;10426570;28;20048;-63
2024/01/16 17:45:02;;;;;;;11.50;7.32;;;;;;;2.13;58.80;99363.34;10401945;28;20655;-62
2024/01/16 17:50:08;;;;;;;9.45;6.25;;;;;;;2.14;59.17;99357.16;10410143;28;20056;-61
2024/01/16 17:55:11;;;;;;;7.47;5.55;;;;;;;1.99;58.88;99351.03;10418098;28;20050;-63
2024/01/16 18:00:16;;;;;;;11.10;6.75;;;;;;;2.06;59.19;99370.75;10424645;28;20052;-61
2024/01/16 18:05:18;;;;;;;12.27;7.20;;;;;;;1.88;59.57;99363.97;10431327;28;20045;-63
2024/01/16 18:10:20;;;;;;;10.77;6.80;;;;;;;1.90;59.49;99356.84;10434724;28;20057;-63
2024/01/16 18:15:22;;;;;;;10.18;7.40;;;;;;;1.89;60.11;99340.25;10402725;28;20078;-62
2024/01/16 18:20:31;;;;;;;13.55;6.50;;;;;;;1.88;61.53;99335.09;10374674;28;20066;-65
2024/01/16 18:25:34;;;;;;;8.18;6.88;;;;;;;1.99;59.98;99351.03;10429149;28;20102;-62
2024/01/16 18:30:35;;;;;;;12.32;7.32;;;;;;;1.83;59.64;99337.13;10424895;28;20089;-62
2024/01/16 18:35:38;;;;;;;13.82;8.63;;;;;;;1.97;60.47;99323.19;10421553;28;20057;-61
2024/01/16 18:40:40;;;;;;;12.32;7.03;;;;;;;1.92;60.08;99312.97;10412684;28;20153;-63
2024/01/16 18:45:43;;;;;;;11.95;7.78;;;;;;;1.93;59.88;99309.41;10407819;28;20049;-62
2024/01/16 18:50:50;;;;;;;12.35;8.13;;;;;;;1.96;59.87;99296.09;10425378;28;20060;-62
2024/01/16 18:55:52;;;;;;;11.68;8.13;;;;;;;2.00;59.87;99299.38;10410699;28;20071;-62
2024/01/16 19:00:56;;;;;;;9.60;7.30;;;;;;;1.93;59.70;99289.25;10436960;28;20064;-61
2024/01/16 19:06:00;;;;;;;10.90;6.95;;;;;;;1.92;60.53;99284.09;10393903;28;20056;-61
2024/01/16 19:11:03;;;;;;;12.02;7.93;;;;;;;1.94;60.17;99290.94;10412944;28;20095;-61
2024/01/16 19:16:06;;;;;;;9.88;7.78;;;;;;;1.95;60.02;99291.78;10442256;28;20083;-62
2024/01/16 19:21:10;;;;;;;18.58;11.63;;;;;;;1.91;60.06;99288.50;10438072;28;20053;-62
2024/01/16 19:26:11;;;;;;;43.00;24.30;;;;;;;1.96;60.43;99279.53;10421853;28;20048;-61
2024/01/16 19:31:13;;;;;;;13.60;8.60;;;;;;;1.94;60.20;99269.13;10427318;28;20151;-62
2024/01/16 19:36:15;;;;;;;35.72;22.10;;;;;;;1.99;60.81;99267.06;10412485;28;20041;-63
2024/01/16 19:41:17;;;;;;;16.33;10.57;;;;;;;1.96;60.49;99272.50;10415494;28;20056;-62
2024/01/16 19:46:22;;;;;;;12.10;8.07;;;;;;;1.91;60.51;99253.56;10417044;28;20145;-62
2024/01/16 19:51:25;;;;;;;11.65;8.20;;;;;;;1.96;61.33;99255.91;10437399;28;20128;-64
2024/01/16 19:56:31;;;;;;;31.65;21.40;;;;;;;1.88;59.96;99235.38;10430593;28;20229;-63
2024/01/16 20:01:33;;;;;;;19.17;13.48;;;;;;;1.99;61.09;99234.72;10430052;28;20055;-64
2024/01/16 20:06:34;;;;;;;15.93;10.10;;;;;;;2.01;61.28;99235.44;10441322;28;20052;-62
2024/01/16 20:11:37;;;;;;;19.10;12.63;;;;;;;1.98;60.88;99233.84;10425304;28;20073;-62
2024/01/16 20:16:39;;;;;;;16.80;13.85;;;;;;;1.96;60.72;99230.50;10439720;28;20049;-60
2024/01/16 20:21:43;;;;;;;15.52;13.02;;;;;;;2.02;61.04;99230.09;10437103;28;20049;-63
2024/01/16 20:26:45;;;;;;;17.17;12.10;;;;;;;2.01;61.20;99228.44;10441405;28;20165;-60
2024/01/16 20:31:46;;;;;;;15.90;11.98;;;;;;;1.98;60.70;99210.22;10437291;28;20049;-61
2024/01/16 20:36:54;;;;;;;15.98;13.75;;;;;;;1.86;60.16;99208.38;10441265;28;20576;-61
2024/01/16 20:41:56;;;;;;;16.98;12.68;;;;;;;1.89;61.18;99210.81;10424261;28;20048;-62
2024/01/16 20:47:00;;;;;;;16.17;13.23;;;;;;;1.83;61.12;99212.03;10376089;28;20077;-62
2024/01/16 20:52:03;;;;;;;15.45;11.48;;;;;;;1.91;61.65;99214.19;10422382;28;20148;-63
2024/01/16 20:57:05;;;;;;;17.85;11.02;;;;;;;1.91;61.14;99211.56;10412853;28;20053;-61
2024/01/16 21:02:07;;;;;;;14.23;9.95;;;;;;;1.90;60.88;99220.38;10439360;28;20052;-63
2024/01/16 21:07:09;;;;;;;14.57;11.02;;;;;;;1.75;60.47;99211.66;10419120;28;20037;-61
2024/01/16 21:12:12;;;;;;;14.65;10.30;;;;;;;1.62;61.30;99201.03;10432818;28;20100;-62
2024/01/16 21:17:14;;;;;;;14.73;9.57;;;;;;;1.58;61.38;99194.31;10435025;28;20919;-61
2024/01/16 21:22:15;;;;;;;13.20;9.25;;;;;;;1.66;61.41;99193.84;10432068;28;20059;-62
2024/01/16 21:27:30;;;;;;;14.53;10.50;;;;;;;1.71;61.71;99199.66;10438239;28;20051;-63
2024/01/16 21:32:33;;;;;;;18.23;11.18;;;;;;;1.74;61.57;99192.44;10429948;28;20052;-63
2024/01/16 21:37:37;;;;;;;16.13;11.85;;;;;;;1.74;61.47;99173.22;10437398;28;20052;-62
2024/01/16 21:42:39;;;;;;;12.90;11.07;;;;;;;1.75;61.31;99165.25;10408690;28;20060;-62
2024/01/16 21:47:42;;;;;;;12.00;10.15;;;;;;;1.72;60.94;99170.69;10432804;28;20059;-62
2024/01/16 21:52:43;;;;;;;15.50;10.63;;;;;;;1.57;61.30;99143.59;10436776;28;20059;-62
2024/01/16 21:57:48;;;;;;;14.05;11.05;;;;;;;1.62;61.13;99152.97;10435624;28;20066;-63
2024/01/16 22:02:56;;;;;;;16.17;11.60;;;;;;;1.59;61.16;99147.00;10430846;28;20064;-63
2024/01/16 22:07:58;;;;;;;13.48;11.15;;;;;;;1.53;60.82;99142.13;10432985;28;20049;-62
2024/01/16 22:13:02;;;;;;;16.15;11.68;;;;;;;1.53;61.28;99131.63;10420238;28;20543;-62
2024/01/16 22:18:04;;;;;;;15.93;12.05;;;;;;;1.52;61.12;99126.50;10407557;28;20128;-63
2024/01/16 22:23:05;;;;;;;14.35;11.85;;;;;;;1.40;60.97;99126.28;10431835;28;20137;-64
2024/01/16 22:28:08;;;;;;;16.80;12.68;;;;;;;1.46;61.66;99122.44;10426103;28;22020;-63
2024/01/16 22:33:11;;;;;;;13.23;10.75;;;;;;;1.50;61.33;99115.22;10420666;28;20053;-64
2024/01/16 22:38:13;;;;;;;14.80;12.15;;;;;;;1.41;61.01;99109.63;10394886;28;20102;-63
2024/01/16 22:43:15;;;;;;;20.00;12.18;;;;;;;1.34;60.37;99097.81;10408524;28;20561;-62
2024/01/16 22:48:16;;;;;;;15.52;11.95;;;;;;;1.30;61.42;99101.56;10423623;28;20056;-63
2024/01/16 22:53:19;;;;;;;14.23;10.45;;;;;;;1.34;61.95;99097.81;10442511;28;20080;-63
2024/01/16 22:58:20;;;;;;;14.07;11.60;;;;;;;1.37;61.84;99083.69;10390894;28;20187;-64
2024/01/16 23:03:23;;;;;;;15.05;12.52;;;;;;;1.28;61.53;99079.84;10446573;28;20048;-62
2024/01/16 23:08:25;;;;;;;15.57;12.15;;;;;;;1.34;61.08;99081.25;10448072;28;20098;-62
2024/01/16 23:13:26;;;;;;;16.30;12.80;;;;;;;1.27;60.85;99062.41;10447581;28;20047;-63
2024/01/16 23:18:29;;;;;;;19.35;13.13;;;;;;;1.28;61.19;99061.50;10452165;28;20040;-62
2024/01/16 23:23:31;;;;;;;17.42;13.20;;;;;;;1.20;61.18;99048.84;10391209;28;20059;-63
2024/01/16 23:28:33;;;;;;;16.45;12.13;;;;;;;1.18;61.13;99034.16;10446087;28;20057;-62
2024/01/16 23:33:34;;;;;;;18.13;14.20;;;;;;;1.16;61.51;99009.81;10446356;28;20053;-62
2024/01/16 23:38:38;;;;;;;17.67;12.68;;;;;;;1.17;61.41;99003.63;10440689;28;20796;-65